21.5°F
Current conditions from King Hill
Updated every 5 minutes
 
  Friday November 28, 2014

Station Historical Data
Daily Summary for July 26, 2011 Units:  Both    English   Metric
« Previous Day
Next Day »
Daily Weekly Monthly Yearly Custom
  High: Low: Average:
Temperature: 78.7 °F /  25.9 °C 56.9 °F /  13.8 °C 66.1 °F /  18.9 °C
Dew Point: 68.5 °F /  20.3 °C 54.3 °F /  12.4 °C 61.8 °F /  16.6 °C
Humidity: 96% 63% 87%
Wind Speed: 14.0mph /  22.5km/h - 3.1mph /  5km/h
Wind Gust: 27.0mph /  43.5km/h - -
Wind- - SW
Pressure: 29.67 in /  1004.6 hPa 29.53 in /  999.9 hPa -
Precipitation: 0.14 in /  3.6 mm    
Historical Graphs
 
 
Tabular Data for July 26, 2011
Time Temperature Dew Point Pressure Wind Wind Speed Wind Gust Humidity Daily Rainfall
00:00 61.3 °F /  16.3 °C 59.3 °F /  15.2 °C 29.67in /  1004.6hPa Calm   4.0mph /  6.4km/h 93% 0.10in /  2.5mm
00:05 61.4 °F /  16.3 °C 59.4 °F /  15.2 °C 29.66in /  1004.3hPa SSW 3.0mph /  4.8km/h 7.0mph /  11.3km/h 93% 0.00in /  0mm
00:10 61.4 °F /  16.3 °C 59.4 °F /  15.2 °C 29.66in /  1004.3hPa Calm   7.0mph /  11.3km/h 93% 0.00in /  0mm
00:15 61.5 °F /  16.4 °C 59.5 °F /  15.3 °C 29.66in /  1004.3hPa SSW 2.0mph /  3.2km/h 7.0mph /  11.3km/h 93% 0.00in /  0mm
00:20 61.6 °F /  16.4 °C 59.6 °F /  15.3 °C 29.66in /  1004.3hPa SSW 2.0mph /  3.2km/h 8.0mph /  12.9km/h 93% 0.00in /  0mm
00:25 61.6 °F /  16.4 °C 59.6 °F /  15.3 °C 29.66in /  1004.3hPa SSW 1.0mph /  1.6km/h 8.0mph /  12.9km/h 93% 0.00in /  0mm
00:30 61.7 °F /  16.5 °C 59.7 °F /  15.4 °C 29.66in /  1004.3hPa Calm   8.0mph /  12.9km/h 93% 0.00in /  0mm
00:35 61.8 °F /  16.6 °C 59.8 °F /  15.4 °C 29.66in /  1004.3hPa Calm   7.0mph /  11.3km/h 93% 0.00in /  0mm
00:40 61.8 °F /  16.6 °C 59.8 °F /  15.4 °C 29.66in /  1004.3hPa SSW 1.0mph /  1.6km/h 7.0mph /  11.3km/h 93% 0.00in /  0mm
00:45 61.9 °F /  16.6 °C 59.9 °F /  15.5 °C 29.66in /  1004.3hPa SSW 2.0mph /  3.2km/h 7.0mph /  11.3km/h 93% 0.00in /  0mm
00:50 62.0 °F /  16.7 °C 60.0 °F /  15.6 °C 29.66in /  1004.3hPa SSW 1.0mph /  1.6km/h 7.0mph /  11.3km/h 93% 0.00in /  0mm
00:55 62.1 °F /  16.7 °C 60.1 °F /  15.6 °C 29.66in /  1004.3hPa SSW 2.0mph /  3.2km/h 7.0mph /  11.3km/h 93% 0.00in /  0mm
01:00 62.2 °F /  16.8 °C 60.2 °F /  15.7 °C 29.66in /  1004.3hPa SW 2.0mph /  3.2km/h 8.0mph /  12.9km/h 93% 0.00in /  0mm
01:05 62.3 °F /  16.8 °C 60.3 °F /  15.7 °C 29.65in /  1003.9hPa SSW 2.0mph /  3.2km/h 8.0mph /  12.9km/h 93% 0.00in /  0mm
01:10 62.4 °F /  16.9 °C 60.4 °F /  15.8 °C 29.65in /  1003.9hPa SSW 2.0mph /  3.2km/h 7.0mph /  11.3km/h 93% 0.00in /  0mm
01:15 62.5 °F /  16.9 °C 60.8 °F /  16 °C 29.65in /  1003.9hPa SW 5.0mph /  8km/h 10.0mph /  16.1km/h 94% 0.00in /  0mm
01:20 62.6 °F /  17 °C 60.8 °F /  16 °C 29.65in /  1003.9hPa WSW 1.0mph /  1.6km/h 11.0mph /  17.7km/h 94% 0.00in /  0mm
01:25 62.7 °F /  17.1 °C 60.9 °F /  16.1 °C 29.65in /  1003.9hPa WSW 1.0mph /  1.6km/h 11.0mph /  17.7km/h 94% 0.00in /  0mm
01:30 62.7 °F /  17.1 °C 60.9 °F /  16.1 °C 29.65in /  1003.9hPa SW 5.0mph /  8km/h 10.0mph /  16.1km/h 94% 0.00in /  0mm
01:35 62.8 °F /  17.1 °C 61.0 °F /  16.1 °C 29.65in /  1003.9hPa SW 1.0mph /  1.6km/h 10.0mph /  16.1km/h 94% 0.00in /  0mm
01:40 62.9 °F /  17.2 °C 60.8 °F /  16 °C 29.65in /  1003.9hPa SW 5.0mph /  8km/h 13.0mph /  20.9km/h 93% 0.00in /  0mm
01:45 62.9 °F /  17.2 °C 60.8 °F /  16 °C 29.65in /  1003.9hPa SSW 2.0mph /  3.2km/h 13.0mph /  20.9km/h 93% 0.00in /  0mm
01:50 63.0 °F /  17.2 °C 60.9 °F /  16.1 °C 29.65in /  1003.9hPa SW 2.0mph /  3.2km/h 11.0mph /  17.7km/h 93% 0.00in /  0mm
01:55 63.0 °F /  17.2 °C 60.9 °F /  16.1 °C 29.64in /  1003.6hPa SW 3.0mph /  4.8km/h 11.0mph /  17.7km/h 93% 0.00in /  0mm
02:00 63.1 °F /  17.3 °C 61.0 °F /  16.1 °C 29.64in /  1003.6hPa SSW 4.0mph /  6.4km/h 10.0mph /  16.1km/h 93% 0.00in /  0mm
02:05 63.1 °F /  17.3 °C 61.0 °F /  16.1 °C 29.64in /  1003.6hPa SSW 2.0mph /  3.2km/h 10.0mph /  16.1km/h 93% 0.00in /  0mm
02:10 63.1 °F /  17.3 °C 61.0 °F /  16.1 °C 29.64in /  1003.6hPa SSW 2.0mph /  3.2km/h 10.0mph /  16.1km/h 93% 0.00in /  0mm
02:15 63.2 °F /  17.3 °C 61.1 °F /  16.2 °C 29.64in /  1003.6hPa SW 6.0mph /  9.7km/h 10.0mph /  16.1km/h 93% 0.00in /  0mm
02:20 63.2 °F /  17.3 °C 61.1 °F /  16.2 °C 29.64in /  1003.6hPa South 2.0mph /  3.2km/h 10.0mph /  16.1km/h 93% 0.00in /  0mm
02:25 63.2 °F /  17.3 °C 61.1 °F /  16.2 °C 29.63in /  1003.3hPa SSW 3.0mph /  4.8km/h 10.0mph /  16.1km/h 93% 0.00in /  0mm
02:30 63.3 °F /  17.4 °C 61.2 °F /  16.2 °C 29.63in /  1003.3hPa SW 2.0mph /  3.2km/h 10.0mph /  16.1km/h 93% 0.00in /  0mm
02:35 63.3 °F /  17.4 °C 61.5 °F /  16.4 °C 29.63in /  1003.3hPa SW 1.0mph /  1.6km/h 8.0mph /  12.9km/h 94% 0.00in /  0mm
02:40 63.3 °F /  17.4 °C 61.5 °F /  16.4 °C 29.63in /  1003.3hPa SSW 5.0mph /  8km/h 13.0mph /  20.9km/h 94% 0.00in /  0mm
02:45 63.3 °F /  17.4 °C 61.5 °F /  16.4 °C 29.63in /  1003.3hPa SSW 1.0mph /  1.6km/h 13.0mph /  20.9km/h 94% 0.00in /  0mm
02:50 63.4 °F /  17.4 °C 61.6 °F /  16.4 °C 29.63in /  1003.3hPa SSW 3.0mph /  4.8km/h 11.0mph /  17.7km/h 94% 0.00in /  0mm
02:55 63.4 °F /  17.4 °C 61.6 °F /  16.4 °C 29.63in /  1003.3hPa SSW 2.0mph /  3.2km/h 13.0mph /  20.9km/h 94% 0.00in /  0mm
03:00 63.4 °F /  17.4 °C 61.6 °F /  16.4 °C 29.63in /  1003.3hPa SSW 4.0mph /  6.4km/h 13.0mph /  20.9km/h 94% 0.00in /  0mm
03:05 63.4 °F /  17.4 °C 61.6 °F /  16.4 °C 29.63in /  1003.3hPa SW 2.0mph /  3.2km/h 11.0mph /  17.7km/h 94% 0.00in /  0mm
03:10 63.4 °F /  17.4 °C 61.6 °F /  16.4 °C 29.63in /  1003.3hPa SSW 4.0mph /  6.4km/h 11.0mph /  17.7km/h 94% 0.00in /  0mm
03:15 63.5 °F /  17.5 °C 61.7 °F /  16.5 °C 29.63in /  1003.3hPa SW 4.0mph /  6.4km/h 11.0mph /  17.7km/h 94% 0.00in /  0mm
03:20 63.5 °F /  17.5 °C 61.7 °F /  16.5 °C 29.63in /  1003.3hPa SSW 2.0mph /  3.2km/h 11.0mph /  17.7km/h 94% 0.00in /  0mm
03:25 63.5 °F /  17.5 °C 61.7 °F /  16.5 °C 29.63in /  1003.3hPa SSW 4.0mph /  6.4km/h 11.0mph /  17.7km/h 94% 0.00in /  0mm
03:30 63.5 °F /  17.5 °C 61.7 °F /  16.5 °C 29.63in /  1003.3hPa SSW 2.0mph /  3.2km/h 9.0mph /  14.5km/h 94% 0.00in /  0mm
03:35 63.5 °F /  17.5 °C 61.7 °F /  16.5 °C 29.63in /  1003.3hPa SW 4.0mph /  6.4km/h 9.0mph /  14.5km/h 94% 0.00in /  0mm
03:40 63.5 °F /  17.5 °C 61.7 °F /  16.5 °C 29.63in /  1003.3hPa SSW 1.0mph /  1.6km/h 8.0mph /  12.9km/h 94% 0.00in /  0mm
03:45 63.5 °F /  17.5 °C 61.7 °F /  16.5 °C 29.63in /  1003.3hPa SSW 3.0mph /  4.8km/h 10.0mph /  16.1km/h 94% 0.00in /  0mm
03:50 63.5 °F /  17.5 °C 61.7 °F /  16.5 °C 29.63in /  1003.3hPa SW 4.0mph /  6.4km/h 10.0mph /  16.1km/h 94% 0.00in /  0mm
03:55 63.5 °F /  17.5 °C 61.7 °F /  16.5 °C 29.63in /  1003.3hPa SW 3.0mph /  4.8km/h 10.0mph /  16.1km/h 94% 0.00in /  0mm
04:00 63.5 °F /  17.5 °C 62.0 °F /  16.7 °C 29.63in /  1003.3hPa SW 3.0mph /  4.8km/h 8.0mph /  12.9km/h 95% 0.00in /  0mm
04:05 63.5 °F /  17.5 °C 62.0 °F /  16.7 °C 29.63in /  1003.3hPa SSW 4.0mph /  6.4km/h 10.0mph /  16.1km/h 95% 0.00in /  0mm
04:10 63.5 °F /  17.5 °C 62.0 °F /  16.7 °C 29.63in /  1003.3hPa SW 3.0mph /  4.8km/h 10.0mph /  16.1km/h 95% 0.00in /  0mm
04:15 63.5 °F /  17.5 °C 62.0 °F /  16.7 °C 29.63in /  1003.3hPa SSW 4.0mph /  6.4km/h 12.0mph /  19.3km/h 95% 0.00in /  0mm
04:20 63.5 °F /  17.5 °C 62.0 °F /  16.7 °C 29.63in /  1003.3hPa SW 3.0mph /  4.8km/h 12.0mph /  19.3km/h 95% 0.00in /  0mm
04:25 63.5 °F /  17.5 °C 62.0 °F /  16.7 °C 29.62in /  1002.9hPa SW 4.0mph /  6.4km/h 9.0mph /  14.5km/h 95% 0.00in /  0mm
04:30 63.4 °F /  17.4 °C 61.9 °F /  16.6 °C 29.63in /  1003.3hPa SSW 2.0mph /  3.2km/h 9.0mph /  14.5km/h 95% 0.00in /  0mm
04:35 63.4 °F /  17.4 °C 61.9 °F /  16.6 °C 29.63in /  1003.3hPa SW 2.0mph /  3.2km/h 8.0mph /  12.9km/h 95% 0.00in /  0mm
04:45 63.5 °F /  17.5 °C 62.0 °F /  16.7 °C 29.63in /  1003.3hPa SW 5.0mph /  8km/h 11.0mph /  17.7km/h 95% 0.00in /  0mm
04:50 63.5 °F /  17.5 °C 62.0 °F /  16.7 °C 29.63in /  1003.3hPa SW 3.0mph /  4.8km/h 11.0mph /  17.7km/h 95% 0.00in /  0mm
04:55 63.5 °F /  17.5 °C 62.0 °F /  16.7 °C 29.63in /  1003.3hPa SW 3.0mph /  4.8km/h 10.0mph /  16.1km/h 95% 0.00in /  0mm
05:00 63.6 °F /  17.6 °C 62.1 °F /  16.7 °C 29.63in /  1003.3hPa SW 3.0mph /  4.8km/h 10.0mph /  16.1km/h 95% 0.00in /  0mm
05:05 63.6 °F /  17.6 °C 62.1 °F /  16.7 °C 29.63in /  1003.3hPa SW 2.0mph /  3.2km/h 9.0mph /  14.5km/h 95% 0.00in /  0mm
05:10 63.6 °F /  17.6 °C 62.1 °F /  16.7 °C 29.63in /  1003.3hPa SSW 3.0mph /  4.8km/h 7.0mph /  11.3km/h 95% 0.00in /  0mm
05:15 63.6 °F /  17.6 °C 62.1 °F /  16.7 °C 29.63in /  1003.3hPa SW 5.0mph /  8km/h 8.0mph /  12.9km/h 95% 0.00in /  0mm
05:20 63.6 °F /  17.6 °C 62.1 °F /  16.7 °C 29.64in /  1003.6hPa SW 5.0mph /  8km/h 11.0mph /  17.7km/h 95% 0.00in /  0mm
05:25 63.6 °F /  17.6 °C 62.1 °F /  16.7 °C 29.64in /  1003.6hPa Calm   11.0mph /  17.7km/h 95% 0.00in /  0mm
05:30 63.5 °F /  17.5 °C 62.0 °F /  16.7 °C 29.64in /  1003.6hPa SSW 4.0mph /  6.4km/h 9.0mph /  14.5km/h 95% 0.00in /  0mm
05:35 63.4 °F /  17.4 °C 61.9 °F /  16.6 °C 29.63in /  1003.3hPa SSW 2.0mph /  3.2km/h 9.0mph /  14.5km/h 95% 0.00in /  0mm
05:40 63.3 °F /  17.4 °C 61.8 °F /  16.6 °C 29.63in /  1003.3hPa SSW 3.0mph /  4.8km/h 9.0mph /  14.5km/h 95% 0.00in /  0mm
05:45 63.3 °F /  17.4 °C 61.8 °F /  16.6 °C 29.63in /  1003.3hPa SSW 2.0mph /  3.2km/h 8.0mph /  12.9km/h 95% 0.00in /  0mm
05:50 63.3 °F /  17.4 °C 61.8 °F /  16.6 °C 29.63in /  1003.3hPa SSW 3.0mph /  4.8km/h 10.0mph /  16.1km/h 95% 0.00in /  0mm
05:55 63.3 °F /  17.4 °C 61.8 °F /  16.6 °C 29.63in /  1003.3hPa SW 2.0mph /  3.2km/h 10.0mph /  16.1km/h 95% 0.00in /  0mm
06:00 63.3 °F /  17.4 °C 61.8 °F /  16.6 °C 29.63in /  1003.3hPa SSW 2.0mph /  3.2km/h 7.0mph /  11.3km/h 95% 0.00in /  0mm
06:05 63.3 °F /  17.4 °C 61.8 °F /  16.6 °C 29.63in /  1003.3hPa SSW 1.0mph /  1.6km/h 7.0mph /  11.3km/h 95% 0.00in /  0mm
06:10 63.3 °F /  17.4 °C 61.8 °F /  16.6 °C 29.64in /  1003.6hPa SW 1.0mph /  1.6km/h 7.0mph /  11.3km/h 95% 0.00in /  0mm
06:15 63.3 °F /  17.4 °C 61.8 °F /  16.6 °C 29.64in /  1003.6hPa SSW 1.0mph /  1.6km/h 7.0mph /  11.3km/h 95% 0.00in /  0mm
06:20 63.4 °F /  17.4 °C 61.9 °F /  16.6 °C 29.64in /  1003.6hPa Calm   5.0mph /  8km/h 95% 0.00in /  0mm
06:25 63.4 °F /  17.4 °C 61.9 °F /  16.6 °C 29.64in /  1003.6hPa SSW 1.0mph /  1.6km/h 7.0mph /  11.3km/h 95% 0.00in /  0mm
06:30 63.6 °F /  17.6 °C 62.4 °F /  16.9 °C 29.64in /  1003.6hPa SW 1.0mph /  1.6km/h 7.0mph /  11.3km/h 96% 0.00in /  0mm
06:35 63.7 °F /  17.6 °C 62.5 °F /  16.9 °C 29.64in /  1003.6hPa SSW 1.0mph /  1.6km/h 6.0mph /  9.7km/h 96% 0.00in /  0mm
06:40 63.9 °F /  17.7 °C 62.7 °F /  17.1 °C 29.64in /  1003.6hPa SSW 2.0mph /  3.2km/h 8.0mph /  12.9km/h 96% 0.00in /  0mm
06:45 64.1 °F /  17.8 °C 62.9 °F /  17.2 °C 29.64in /  1003.6hPa SW 2.0mph /  3.2km/h 8.0mph /  12.9km/h 96% 0.00in /  0mm
06:50 64.2 °F /  17.9 °C 62.7 °F /  17.1 °C 29.64in /  1003.6hPa Calm   9.0mph /  14.5km/h 95% 0.00in /  0mm
06:55 64.5 °F /  18.1 °C 63.3 °F /  17.4 °C 29.64in /  1003.6hPa Calm   9.0mph /  14.5km/h 96% 0.00in /  0mm
07:00 64.5 °F /  18.1 °C 63.0 °F /  17.2 °C 29.64in /  1003.6hPa SSW 3.0mph /  4.8km/h 8.0mph /  12.9km/h 95% 0.00in /  0mm
07:05 64.6 °F /  18.1 °C 63.1 °F /  17.3 °C 29.64in /  1003.6hPa SSW 4.0mph /  6.4km/h 8.0mph /  12.9km/h 95% 0.00in /  0mm
07:10 64.7 °F /  18.2 °C 63.2 °F /  17.3 °C 29.64in /  1003.6hPa SSW 2.0mph /  3.2km/h 8.0mph /  12.9km/h 95% 0.00in /  0mm
07:15 64.7 °F /  18.2 °C 63.2 °F /  17.3 °C 29.65in /  1003.9hPa SW 3.0mph /  4.8km/h 8.0mph /  12.9km/h 95% 0.00in /  0mm
07:20 64.8 °F /  18.2 °C 63.3 °F /  17.4 °C 29.64in /  1003.6hPa SW 3.0mph /  4.8km/h 9.0mph /  14.5km/h 95% 0.00in /  0mm
07:25 64.8 °F /  18.2 °C 63.0 °F /  17.2 °C 29.64in /  1003.6hPa SSW 2.0mph /  3.2km/h 10.0mph /  16.1km/h 94% 0.00in /  0mm
07:30 64.9 °F /  18.3 °C 63.1 °F /  17.3 °C 29.64in /  1003.6hPa SSW 2.0mph /  3.2km/h 10.0mph /  16.1km/h 94% 0.00in /  0mm
07:35 65.1 °F /  18.4 °C 63.3 °F /  17.4 °C 29.64in /  1003.6hPa SW 2.0mph /  3.2km/h 9.0mph /  14.5km/h 94% 0.00in /  0mm
07:40 65.3 °F /  18.5 °C 63.5 °F /  17.5 °C 29.64in /  1003.6hPa SW 5.0mph /  8km/h 11.0mph /  17.7km/h 94% 0.00in /  0mm
07:45 65.4 °F /  18.6 °C 63.6 °F /  17.6 °C 29.64in /  1003.6hPa SW 5.0mph /  8km/h 11.0mph /  17.7km/h 94% 0.00in /  0mm
07:50 65.4 °F /  18.6 °C 63.3 °F /  17.4 °C 29.64in /  1003.6hPa SW 2.0mph /  3.2km/h 11.0mph /  17.7km/h 93% 0.00in /  0mm
07:55 65.5 °F /  18.6 °C 63.4 °F /  17.4 °C 29.64in /  1003.6hPa SW 1.0mph /  1.6km/h 10.0mph /  16.1km/h 93% 0.00in /  0mm
08:00 65.7 °F /  18.7 °C 63.6 °F /  17.6 °C 29.64in /  1003.6hPa SSW 6.0mph /  9.7km/h 13.0mph /  20.9km/h 93% 0.00in /  0mm
08:05 65.8 °F /  18.8 °C 63.7 °F /  17.6 °C 29.64in /  1003.6hPa SW 2.0mph /  3.2km/h 13.0mph /  20.9km/h 93% 0.00in /  0mm
08:10 66.0 °F /  18.9 °C 63.9 °F /  17.7 °C 29.64in /  1003.6hPa SW 4.0mph /  6.4km/h 13.0mph /  20.9km/h 93% 0.00in /  0mm
08:15 66.2 °F /  19 °C 63.8 °F /  17.7 °C 29.64in /  1003.6hPa SSW 1.0mph /  1.6km/h 13.0mph /  20.9km/h 92% 0.00in /  0mm
08:20 66.3 °F /  19.1 °C 63.9 °F /  17.7 °C 29.64in /  1003.6hPa SSW 2.0mph /  3.2km/h 11.0mph /  17.7km/h 92% 0.00in /  0mm
08:25 66.6 °F /  19.2 °C 64.2 °F /  17.9 °C 29.64in /  1003.6hPa SW 3.0mph /  4.8km/h 11.0mph /  17.7km/h 92% 0.00in /  0mm
08:30 67.2 °F /  19.6 °C 64.5 °F /  18.1 °C 29.63in /  1003.3hPa SSW 2.0mph /  3.2km/h 11.0mph /  17.7km/h 91% 0.00in /  0mm
08:35 67.8 °F /  19.9 °C 64.8 °F /  18.2 °C 29.64in /  1003.6hPa SW 4.0mph /  6.4km/h 12.0mph /  19.3km/h 90% 0.00in /  0mm
08:45 67.9 °F /  19.9 °C 64.2 °F /  17.9 °C 29.64in /  1003.6hPa SSW 3.0mph /  4.8km/h 12.0mph /  19.3km/h 88% 0.00in /  0mm
08:50 68.3 °F /  20.2 °C 64.9 °F /  18.3 °C 29.63in /  1003.3hPa SW 3.0mph /  4.8km/h 13.0mph /  20.9km/h 89% 0.00in /  0mm
08:55 69.0 °F /  20.6 °C 65.0 °F /  18.3 °C 29.63in /  1003.3hPa SSW 5.0mph /  8km/h 13.0mph /  20.9km/h 87% 0.00in /  0mm
09:00 69.3 °F /  20.7 °C 64.9 °F /  18.3 °C 29.63in /  1003.3hPa SW 3.0mph /  4.8km/h 13.0mph /  20.9km/h 86% 0.00in /  0mm
09:10 69.7 °F /  20.9 °C 65.3 °F /  18.5 °C 29.62in /  1002.9hPa SSW 4.0mph /  6.4km/h 11.0mph /  17.7km/h 86% 0.00in /  0mm
09:15 70.0 °F /  21.1 °C 65.3 °F /  18.5 °C 29.62in /  1002.9hPa SSW 3.0mph /  4.8km/h 9.0mph /  14.5km/h 85% 0.00in /  0mm
09:20 70.8 °F /  21.6 °C 66.1 °F /  18.9 °C 29.61in /  1002.6hPa SSW 1.0mph /  1.6km/h 9.0mph /  14.5km/h 85% 0.00in /  0mm
09:25 71.5 °F /  21.9 °C 65.7 °F /  18.7 °C 29.62in /  1002.9hPa WSW 5.0mph /  8km/h 9.0mph /  14.5km/h 82% 0.00in /  0mm
09:30 72.3 °F /  22.4 °C 66.1 °F /  18.9 °C 29.62in /  1002.9hPa SW 3.0mph /  4.8km/h 9.0mph /  14.5km/h 81% 0.00in /  0mm
09:35 72.1 °F /  22.3 °C 64.9 °F /  18.3 °C 29.62in /  1002.9hPa SW 4.0mph /  6.4km/h 11.0mph /  17.7km/h 78% 0.00in /  0mm
09:40 71.3 °F /  21.8 °C 64.8 °F /  18.2 °C 29.62in /  1002.9hPa SSW 2.0mph /  3.2km/h 11.0mph /  17.7km/h 80% 0.00in /  0mm
09:45 71.8 °F /  22.1 °C 65.3 °F /  18.5 °C 29.62in /  1002.9hPa SSW 2.0mph /  3.2km/h 10.0mph /  16.1km/h 80% 0.00in /  0mm
09:50 72.6 °F /  22.6 °C 66.1 °F /  18.9 °C 29.62in /  1002.9hPa SW 3.0mph /  4.8km/h 9.0mph /  14.5km/h 80% 0.00in /  0mm
09:55 72.5 °F /  22.5 °C 65.6 °F /  18.7 °C 29.62in /  1002.9hPa SSW 1.0mph /  1.6km/h 8.0mph /  12.9km/h 79% 0.00in /  0mm
10:00 71.9 °F /  22.2 °C 63.6 °F /  17.6 °C 29.62in /  1002.9hPa WSW 3.0mph /  4.8km/h 10.0mph /  16.1km/h 75% 0.00in /  0mm
10:05 71.3 °F /  21.8 °C 63.7 °F /  17.6 °C 29.62in /  1002.9hPa WSW 1.0mph /  1.6km/h 10.0mph /  16.1km/h 77% 0.00in /  0mm
10:10 71.0 °F /  21.7 °C 63.8 °F /  17.7 °C 29.62in /  1002.9hPa SW 2.0mph /  3.2km/h 10.0mph /  16.1km/h 78% 0.00in /  0mm
10:15 71.1 °F /  21.7 °C 63.9 °F /  17.7 °C 29.62in /  1002.9hPa SW 5.0mph /  8km/h 12.0mph /  19.3km/h 78% 0.00in /  0mm
10:20 72.0 °F /  22.2 °C 64.4 °F /  18 °C 29.62in /  1002.9hPa SW 4.0mph /  6.4km/h 12.0mph /  19.3km/h 77% 0.00in /  0mm
10:25 72.1 °F /  22.3 °C 64.1 °F /  17.8 °C 29.62in /  1002.9hPa SW 4.0mph /  6.4km/h 12.0mph /  19.3km/h 76% 0.00in /  0mm
10:35 71.6 °F /  22 °C 64.0 °F /  17.8 °C 29.62in /  1002.9hPa SW 2.0mph /  3.2km/h 13.0mph /  20.9km/h 77% 0.00in /  0mm
10:40 71.9 °F /  22.2 °C 65.0 °F /  18.3 °C 29.62in /  1002.9hPa SW 4.0mph /  6.4km/h 11.0mph /  17.7km/h 79% 0.00in /  0mm
10:45 72.3 °F /  22.4 °C 65.1 °F /  18.4 °C 29.62in /  1002.9hPa SW 6.0mph /  9.7km/h 13.0mph /  20.9km/h 78% 0.00in /  0mm
10:50 73.3 °F /  22.9 °C 65.3 °F /  18.5 °C 29.62in /  1002.9hPa SSW 2.0mph /  3.2km/h 13.0mph /  20.9km/h 76% 0.00in /  0mm
10:55 74.2 °F /  23.4 °C 65.4 °F /  18.6 °C 29.62in /  1002.9hPa SW 4.0mph /  6.4km/h 11.0mph /  17.7km/h 74% 0.00in /  0mm
11:00 74.7 °F /  23.7 °C 65.9 °F /  18.8 °C 29.62in /  1002.9hPa SW 4.0mph /  6.4km/h 11.0mph /  17.7km/h 74% 0.00in /  0mm
11:05 75.2 °F /  24 °C 67.1 °F /  19.5 °C 29.62in /  1002.9hPa West 2.0mph /  3.2km/h 11.0mph /  17.7km/h 76% 0.00in /  0mm
11:10 75.1 °F /  23.9 °C 67.0 °F /  19.4 °C 29.62in /  1002.9hPa SW 5.0mph /  8km/h 12.0mph /  19.3km/h 76% 0.00in /  0mm
11:15 74.7 °F /  23.7 °C 65.5 °F /  18.6 °C 29.62in /  1002.9hPa SW 6.0mph /  9.7km/h 14.0mph /  22.5km/h 73% 0.00in /  0mm
11:20 73.6 °F /  23.1 °C 64.4 °F /  18 °C 29.62in /  1002.9hPa SSW 5.0mph /  8km/h 14.0mph /  22.5km/h 73% 0.00in /  0mm
11:25 72.7 °F /  22.6 °C 64.3 °F /  17.9 °C 29.62in /  1002.9hPa SW 4.0mph /  6.4km/h 12.0mph /  19.3km/h 75% 0.00in /  0mm
11:30 72.6 °F /  22.6 °C 64.6 °F /  18.1 °C 29.61in /  1002.6hPa SSW 2.0mph /  3.2km/h 12.0mph /  19.3km/h 76% 0.00in /  0mm
11:35 72.5 °F /  22.5 °C 64.5 °F /  18.1 °C 29.61in /  1002.6hPa South 2.0mph /  3.2km/h 10.0mph /  16.1km/h 76% 0.00in /  0mm
11:45 71.5 °F /  21.9 °C 64.3 °F /  17.9 °C 29.61in /  1002.6hPa SW 4.0mph /  6.4km/h 12.0mph /  19.3km/h 78% 0.00in /  0mm
11:50 70.4 °F /  21.3 °C 64.3 °F /  17.9 °C 29.61in /  1002.6hPa SSW 3.0mph /  4.8km/h 12.0mph /  19.3km/h 81% 0.01in /  0.3mm
11:55 69.2 °F /  20.7 °C 64.2 °F /  17.9 °C 29.61in /  1002.6hPa SW 1.0mph /  1.6km/h 9.0mph /  14.5km/h 84% 0.03in /  0.8mm
12:00 68.3 °F /  20.2 °C 64.0 °F /  17.8 °C 29.61in /  1002.6hPa SW 1.0mph /  1.6km/h 9.0mph /  14.5km/h 86% 0.06in /  1.5mm
12:05 67.9 °F /  19.9 °C 64.2 °F /  17.9 °C 29.61in /  1002.6hPa Calm   5.0mph /  8km/h 88% 0.09in /  2.3mm
12:10 67.9 °F /  19.9 °C 64.5 °F /  18.1 °C 29.60in /  1002.3hPa Calm     89% 0.09in /  2.3mm
12:15 67.7 °F /  19.8 °C 64.3 °F /  17.9 °C 29.61in /  1002.6hPa SW 5.0mph /  8km/h 9.0mph /  14.5km/h 89% 0.09in /  2.3mm
12:20 67.8 °F /  19.9 °C 64.8 °F /  18.2 °C 29.60in /  1002.3hPa SSW 1.0mph /  1.6km/h 10.0mph /  16.1km/h 90% 0.10in /  2.5mm
12:25 68.6 °F /  20.3 °C 65.9 °F /  18.8 °C 29.60in /  1002.3hPa SSW 1.0mph /  1.6km/h 10.0mph /  16.1km/h 91% 0.10in /  2.5mm
12:30 68.6 °F /  20.3 °C 65.2 °F /  18.4 °C 29.60in /  1002.3hPa South 1.0mph /  1.6km/h 8.0mph /  12.9km/h 89% 0.10in /  2.5mm
12:35 68.9 °F /  20.5 °C 65.8 °F /  18.8 °C 29.60in /  1002.3hPa Calm   7.0mph /  11.3km/h 90% 0.10in /  2.5mm
12:40 69.2 °F /  20.7 °C 66.1 °F /  18.9 °C 29.59in /  1001.9hPa Calm   8.0mph /  12.9km/h 90% 0.10in /  2.5mm
12:45 69.4 °F /  20.8 °C 66.3 °F /  19.1 °C 29.59in /  1001.9hPa SW 1.0mph /  1.6km/h 8.0mph /  12.9km/h 90% 0.10in /  2.5mm
12:50 69.7 °F /  20.9 °C 66.6 °F /  19.2 °C 29.59in /  1001.9hPa SSW 2.0mph /  3.2km/h 7.0mph /  11.3km/h 90% 0.10in /  2.5mm
12:55 69.9 °F /  21.1 °C 66.5 °F /  19.2 °C 29.58in /  1001.6hPa South 2.0mph /  3.2km/h 9.0mph /  14.5km/h 89% 0.10in /  2.5mm
13:00 70.8 °F /  21.6 °C 67.7 °F /  19.8 °C 29.58in /  1001.6hPa SW 1.0mph /  1.6km/h 9.0mph /  14.5km/h 90% 0.10in /  2.5mm
13:05 71.9 °F /  22.2 °C 68.5 °F /  20.3 °C 29.58in /  1001.6hPa SW 1.0mph /  1.6km/h 9.0mph /  14.5km/h 89% 0.10in /  2.5mm
13:10 72.0 °F /  22.2 °C 66.9 °F /  19.4 °C 29.58in /  1001.6hPa SW 2.0mph /  3.2km/h 9.0mph /  14.5km/h 84% 0.10in /  2.5mm
13:15 72.0 °F /  22.2 °C 66.9 °F /  19.4 °C 29.58in /  1001.6hPa SW 3.0mph /  4.8km/h 9.0mph /  14.5km/h 84% 0.10in /  2.5mm
13:20 72.2 °F /  22.3 °C 67.4 °F /  19.7 °C 29.58in /  1001.6hPa Calm   9.0mph /  14.5km/h 85% 0.10in /  2.5mm
13:25 72.4 °F /  22.4 °C 67.3 °F /  19.6 °C 29.58in /  1001.6hPa SW 2.0mph /  3.2km/h 10.0mph /  16.1km/h 84% 0.10in /  2.5mm
13:30 72.9 °F /  22.7 °C 66.7 °F /  19.3 °C 29.58in /  1001.6hPa SSW 2.0mph /  3.2km/h 10.0mph /  16.1km/h 81% 0.10in /  2.5mm
13:35 73.2 °F /  22.9 °C 68.1 °F /  20.1 °C 29.58in /  1001.6hPa SW 4.0mph /  6.4km/h 11.0mph /  17.7km/h 84% 0.10in /  2.5mm
13:40 74.0 °F /  23.3 °C 68.2 °F /  20.1 °C 29.58in /  1001.6hPa SSW 2.0mph /  3.2km/h 12.0mph /  19.3km/h 82% 0.10in /  2.5mm
13:45 74.8 °F /  23.8 °C 67.9 °F /  19.9 °C 29.58in /  1001.6hPa SW 3.0mph /  4.8km/h 12.0mph /  19.3km/h 79% 0.10in /  2.5mm
13:50 75.2 °F /  24 °C 67.5 °F /  19.7 °C 29.57in /  1001.2hPa SW 1.0mph /  1.6km/h 11.0mph /  17.7km/h 77% 0.10in /  2.5mm
13:55 75.5 °F /  24.2 °C 66.6 °F /  19.2 °C 29.58in /  1001.6hPa SW 4.0mph /  6.4km/h 10.0mph /  16.1km/h 74% 0.10in /  2.5mm
14:00 75.4 °F /  24.1 °C 66.5 °F /  19.2 °C 29.57in /  1001.2hPa SSW 3.0mph /  4.8km/h 10.0mph /  16.1km/h 74% 0.10in /  2.5mm
14:05 75.3 °F /  24.1 °C 66.8 °F /  19.3 °C 29.57in /  1001.2hPa SW 4.0mph /  6.4km/h 9.0mph /  14.5km/h 75% 0.10in /  2.5mm
14:10 75.2 °F /  24 °C 66.0 °F /  18.9 °C 29.57in /  1001.2hPa SW 4.0mph /  6.4km/h 14.0mph /  22.5km/h 73% 0.10in /  2.5mm
14:15 75.1 °F /  23.9 °C 65.5 °F /  18.6 °C 29.56in /  1000.9hPa SW 2.0mph /  3.2km/h 14.0mph /  22.5km/h 72% 0.10in /  2.5mm
14:20 75.7 °F /  24.3 °C 66.4 °F /  19.1 °C 29.56in /  1000.9hPa SW 3.0mph /  4.8km/h 10.0mph /  16.1km/h 73% 0.10in /  2.5mm
14:25 76.2 °F /  24.6 °C 66.9 °F /  19.4 °C 29.56in /  1000.9hPa SW 4.0mph /  6.4km/h 15.0mph /  24.1km/h 73% 0.10in /  2.5mm
14:30 75.7 °F /  24.3 °C 65.6 °F /  18.7 °C 29.56in /  1000.9hPa SW 6.0mph /  9.7km/h 15.0mph /  24.1km/h 71% 0.10in /  2.5mm
14:40 74.4 °F /  23.6 °C 65.2 °F /  18.4 °C 29.54in /  1000.2hPa SW 7.0mph /  11.3km/h 10.0mph /  16.1km/h 73% 0.10in /  2.5mm
14:45 75.6 °F /  24.2 °C 66.7 °F /  19.3 °C 29.53in /  999.9hPa SSW 7.0mph /  11.3km/h 13.0mph /  20.9km/h 74% 0.10in /  2.5mm
14:50 76.5 °F /  24.7 °C 65.6 °F /  18.7 °C 29.53in /  999.9hPa WSW 3.0mph /  4.8km/h 14.0mph /  22.5km/h 69% 0.10in /  2.5mm
14:55 77.6 °F /  25.3 °C 65.8 °F /  18.8 °C 29.53in /  999.9hPa SW 4.0mph /  6.4km/h 14.0mph /  22.5km/h 67% 0.10in /  2.5mm
15:00 78.7 °F /  25.9 °C 66.8 °F /  19.3 °C 29.53in /  999.9hPa SW 2.0mph /  3.2km/h 10.0mph /  16.1km/h 67% 0.10in /  2.5mm
15:05 78.5 °F /  25.8 °C 65.8 °F /  18.8 °C 29.53in /  999.9hPa SW 5.0mph /  8km/h 15.0mph /  24.1km/h 65% 0.10in /  2.5mm
15:10 78.1 °F /  25.6 °C 64.5 °F /  18.1 °C 29.54in /  1000.2hPa SW 9.0mph /  14.5km/h 17.0mph /  27.4km/h 63% 0.10in /  2.5mm
15:15 77.8 °F /  25.4 °C 66.0 °F /  18.9 °C 29.54in /  1000.2hPa SSW 4.0mph /  6.4km/h 17.0mph /  27.4km/h 67% 0.10in /  2.5mm
15:20 78.0 °F /  25.6 °C 65.3 °F /  18.5 °C 29.54in /  1000.2hPa SW 6.0mph /  9.7km/h 16.0mph /  25.7km/h 65% 0.10in /  2.5mm
15:25 77.6 °F /  25.3 °C 64.0 °F /  17.8 °C 29.54in /  1000.2hPa SW 6.0mph /  9.7km/h 15.0mph /  24.1km/h 63% 0.10in /  2.5mm
15:30 77.8 °F /  25.4 °C 66.0 °F /  18.9 °C 29.54in /  1000.2hPa SW 4.0mph /  6.4km/h 15.0mph /  24.1km/h 67% 0.10in /  2.5mm
15:35 77.3 °F /  25.2 °C 65.5 °F /  18.6 °C 29.53in /  999.9hPa SW 3.0mph /  4.8km/h 11.0mph /  17.7km/h 67% 0.10in /  2.5mm
15:40 76.9 °F /  24.9 °C 66.8 °F /  19.3 °C 29.53in /  999.9hPa SSW 2.0mph /  3.2km/h 12.0mph /  19.3km/h 71% 0.10in /  2.5mm
15:45 76.6 °F /  24.8 °C 65.3 °F /  18.5 °C 29.53in /  999.9hPa WSW 4.0mph /  6.4km/h 12.0mph /  19.3km/h 68% 0.10in /  2.5mm
15:50 75.9 °F /  24.4 °C 65.0 °F /  18.3 °C 29.54in /  1000.2hPa SW 7.0mph /  11.3km/h 15.0mph /  24.1km/h 69% 0.10in /  2.5mm
15:55 75.5 °F /  24.2 °C 65.4 °F /  18.6 °C 29.54in /  1000.2hPa WNW 3.0mph /  4.8km/h 15.0mph /  24.1km/h 71% 0.10in /  2.5mm
16:00 75.3 °F /  24.1 °C 65.3 °F /  18.5 °C 29.54in /  1000.2hPa WSW 5.0mph /  8km/h 11.0mph /  17.7km/h 71% 0.10in /  2.5mm
16:05 74.4 °F /  23.6 °C 64.8 °F /  18.2 °C 29.54in /  1000.2hPa WSW 3.0mph /  4.8km/h 13.0mph /  20.9km/h 72% 0.10in /  2.5mm
16:10 73.3 °F /  22.9 °C 65.7 °F /  18.7 °C 29.54in /  1000.2hPa West 4.0mph /  6.4km/h 13.0mph /  20.9km/h 77% 0.11in /  2.8mm
16:15 71.9 °F /  22.2 °C 65.4 °F /  18.6 °C 29.54in /  1000.2hPa West 4.0mph /  6.4km/h 10.0mph /  16.1km/h 80% 0.12in /  3mm
16:20 70.4 °F /  21.3 °C 64.3 °F /  17.9 °C 29.54in /  1000.2hPa WNW 5.0mph /  8km/h 14.0mph /  22.5km/h 81% 0.12in /  3mm
16:25 69.9 °F /  21.1 °C 64.8 °F /  18.2 °C 29.54in /  1000.2hPa WNW 9.0mph /  14.5km/h 17.0mph /  27.4km/h 84% 0.12in /  3mm
16:30 69.7 °F /  20.9 °C 64.7 °F /  18.2 °C 29.56in /  1000.9hPa WNW 7.0mph /  11.3km/h 17.0mph /  27.4km/h 84% 0.12in /  3mm
16:35 68.0 °F /  20 °C 60.9 °F /  16.1 °C 29.57in /  1001.2hPa WNW 14.0mph /  22.5km/h 27.0mph /  43.5km/h 78% 0.13in /  3.3mm
16:40 65.7 °F /  18.7 °C 59.0 °F /  15 °C 29.57in /  1001.2hPa NW 7.0mph /  11.3km/h 27.0mph /  43.5km/h 79% 0.13in /  3.3mm
16:50 62.9 °F /  17.2 °C 58.0 °F /  14.4 °C 29.57in /  1001.2hPa NW 7.0mph /  11.3km/h 22.0mph /  35.4km/h 84% 0.13in /  3.3mm
16:55 62.9 °F /  17.2 °C 58.7 °F /  14.8 °C 29.57in /  1001.2hPa WNW 6.0mph /  9.7km/h 17.0mph /  27.4km/h 86% 0.13in /  3.3mm
17:00 63.1 °F /  17.3 °C 58.8 °F /  14.9 °C 29.57in /  1001.2hPa NW 7.0mph /  11.3km/h 13.0mph /  20.9km/h 86% 0.14in /  3.6mm
17:05 63.2 °F /  17.3 °C 59.3 °F /  15.2 °C 29.57in /  1001.2hPa NW 4.0mph /  6.4km/h 13.0mph /  20.9km/h 87% 0.14in /  3.6mm
17:10 63.1 °F /  17.3 °C 58.8 °F /  14.9 °C 29.58in /  1001.6hPa NW 2.0mph /  3.2km/h 10.0mph /  16.1km/h 86% 0.14in /  3.6mm
17:15 63.6 °F /  17.6 °C 59.7 °F /  15.4 °C 29.58in /  1001.6hPa Calm   9.0mph /  14.5km/h 87% 0.14in /  3.6mm
17:20 63.9 °F /  17.7 °C 59.6 °F /  15.3 °C 29.58in /  1001.6hPa Calm   4.0mph /  6.4km/h 86% 0.14in /  3.6mm
17:25 64.3 °F /  17.9 °C 60.4 °F /  15.8 °C 29.58in /  1001.6hPa NW 4.0mph /  6.4km/h 7.0mph /  11.3km/h 87% 0.14in /  3.6mm
17:30 64.8 °F /  18.2 °C 60.8 °F /  16 °C 29.59in /  1001.9hPa NW 2.0mph /  3.2km/h 7.0mph /  11.3km/h 87% 0.14in /  3.6mm
17:35 65.8 °F /  18.8 °C 62.1 °F /  16.7 °C 29.59in /  1001.9hPa Calm   7.0mph /  11.3km/h 88% 0.14in /  3.6mm
17:40 66.5 °F /  19.2 °C 61.5 °F /  16.4 °C 29.59in /  1001.9hPa Calm   6.0mph /  9.7km/h 84% 0.14in /  3.6mm
17:45 66.8 °F /  19.3 °C 60.8 °F /  16 °C 29.60in /  1002.3hPa NE 1.0mph /  1.6km/h 6.0mph /  9.7km/h 81% 0.14in /  3.6mm
17:50 67.0 °F /  19.4 °C 61.7 °F /  16.5 °C 29.60in /  1002.3hPa NE 2.0mph /  3.2km/h 9.0mph /  14.5km/h 83% 0.14in /  3.6mm
17:55 66.9 °F /  19.4 °C 60.5 °F /  15.8 °C 29.60in /  1002.3hPa Calm   9.0mph /  14.5km/h 80% 0.14in /  3.6mm
18:00 66.8 °F /  19.3 °C 60.4 °F /  15.8 °C 29.60in /  1002.3hPa Calm   7.0mph /  11.3km/h 80% 0.14in /  3.6mm
18:05 66.5 °F /  19.2 °C 60.1 °F /  15.6 °C 29.60in /  1002.3hPa NNE 1.0mph /  1.6km/h 3.0mph /  4.8km/h 80% 0.14in /  3.6mm
18:10 66.7 °F /  19.3 °C 60.7 °F /  15.9 °C 29.60in /  1002.3hPa Calm   3.0mph /  4.8km/h 81% 0.14in /  3.6mm
18:15 67.3 °F /  19.6 °C 60.6 °F /  15.9 °C 29.60in /  1002.3hPa Calm   1.0mph /  1.6km/h 79% 0.14in /  3.6mm
18:20 67.9 °F /  19.9 °C 61.2 °F /  16.2 °C 29.60in /  1002.3hPa Calm   1.0mph /  1.6km/h 79% 0.14in /  3.6mm
18:25 67.9 °F /  19.9 °C 59.7 °F /  15.4 °C 29.60in /  1002.3hPa Calm   3.0mph /  4.8km/h 75% 0.14in /  3.6mm
18:30 67.8 °F /  19.9 °C 59.2 °F /  15.1 °C 29.61in /  1002.6hPa Calm   3.0mph /  4.8km/h 74% 0.14in /  3.6mm
18:35 68.0 °F /  20 °C 59.8 °F /  15.4 °C 29.61in /  1002.6hPa Calm   1.0mph /  1.6km/h 75% 0.14in /  3.6mm
18:40 67.9 °F /  19.9 °C 59.3 °F /  15.2 °C 29.60in /  1002.3hPa Calm   1.0mph /  1.6km/h 74% 0.14in /  3.6mm
18:45 67.7 °F /  19.8 °C 59.1 °F /  15.1 °C 29.60in /  1002.3hPa Calm     74% 0.14in /  3.6mm
18:50 67.6 °F /  19.8 °C 59.4 °F /  15.2 °C 29.60in /  1002.3hPa Calm   3.0mph /  4.8km/h 75% 0.14in /  3.6mm
18:55 67.3 °F /  19.6 °C 58.4 °F /  14.7 °C 29.60in /  1002.3hPa Calm   3.0mph /  4.8km/h 73% 0.14in /  3.6mm
19:00 67.0 °F /  19.4 °C 59.6 °F /  15.3 °C 29.61in /  1002.6hPa Calm   3.0mph /  4.8km/h 77% 0.14in /  3.6mm
19:05 66.9 °F /  19.4 °C 59.8 °F /  15.4 °C 29.61in /  1002.6hPa Calm   3.0mph /  4.8km/h 78% 0.14in /  3.6mm
19:10 67.2 °F /  19.6 °C 61.2 °F /  16.2 °C 29.61in /  1002.6hPa Calm     81% 0.14in /  3.6mm
19:15 67.0 °F /  19.4 °C 60.3 °F /  15.7 °C 29.61in /  1002.6hPa Calm   1.0mph /  1.6km/h 79% 0.14in /  3.6mm
19:20 67.0 °F /  19.4 °C 59.9 °F /  15.5 °C 29.61in /  1002.6hPa Calm   1.0mph /  1.6km/h 78% 0.14in /  3.6mm
19:25 66.9 °F /  19.4 °C 59.8 °F /  15.4 °C 29.61in /  1002.6hPa Calm   1.0mph /  1.6km/h 78% 0.14in /  3.6mm
19:30 66.9 °F /  19.4 °C 59.8 °F /  15.4 °C 29.61in /  1002.6hPa Calm     78% 0.14in /  3.6mm
19:35 66.8 °F /  19.3 °C 60.8 °F /  16 °C 29.61in /  1002.6hPa Calm     81% 0.14in /  3.6mm
19:40 66.3 °F /  19.1 °C 60.6 °F /  15.9 °C 29.61in /  1002.6hPa Calm     82% 0.14in /  3.6mm
19:45 65.7 °F /  18.7 °C 60.4 °F /  15.8 °C 29.61in /  1002.6hPa Calm     83% 0.14in /  3.6mm
19:50 65.0 °F /  18.3 °C 59.4 °F /  15.2 °C 29.62in /  1002.9hPa Calm     82% 0.14in /  3.6mm
19:55 64.6 °F /  18.1 °C 59.3 °F /  15.2 °C 29.62in /  1002.9hPa Calm     83% 0.14in /  3.6mm
20:00 64.2 °F /  17.9 °C 59.3 °F /  15.2 °C 29.62in /  1002.9hPa Calm     84% 0.14in /  3.6mm
20:05 63.9 °F /  17.7 °C 59.0 °F /  15 °C 29.62in /  1002.9hPa Calm     84% 0.14in /  3.6mm
20:10 63.1 °F /  17.3 °C 58.5 °F /  14.7 °C 29.62in /  1002.9hPa Calm     85% 0.14in /  3.6mm
20:15 62.4 °F /  16.9 °C 58.2 °F /  14.6 °C 29.63in /  1003.3hPa Calm     86% 0.14in /  3.6mm
20:20 61.8 °F /  16.6 °C 57.6 °F /  14.2 °C 29.63in /  1003.3hPa Calm   1.0mph /  1.6km/h 86% 0.14in /  3.6mm
20:25 61.1 °F /  16.2 °C 57.2 °F /  14 °C 29.63in /  1003.3hPa Calm   1.0mph /  1.6km/h 87% 0.14in /  3.6mm
20:30 60.6 °F /  15.9 °C 56.7 °F /  13.7 °C 29.63in /  1003.3hPa Calm   1.0mph /  1.6km/h 87% 0.14in /  3.6mm
20:35 60.1 °F /  15.6 °C 56.5 °F /  13.6 °C 29.63in /  1003.3hPa Calm     88% 0.14in /  3.6mm
20:40 59.6 °F /  15.3 °C 56.0 °F /  13.3 °C 29.64in /  1003.6hPa Calm     88% 0.14in /  3.6mm
20:45 59.2 °F /  15.1 °C 56.0 °F /  13.3 °C 29.64in /  1003.6hPa Calm     89% 0.14in /  3.6mm
20:50 59.0 °F /  15 °C 55.8 °F /  13.2 °C 29.64in /  1003.6hPa Calm     89% 0.14in /  3.6mm
20:55 58.5 °F /  14.7 °C 55.3 °F /  12.9 °C 29.64in /  1003.6hPa Calm     89% 0.14in /  3.6mm
21:00 58.2 °F /  14.6 °C 55.3 °F /  12.9 °C 29.64in /  1003.6hPa Calm     90% 0.14in /  3.6mm
21:05 57.9 °F /  14.4 °C 55.0 °F /  12.8 °C 29.64in /  1003.6hPa Calm   1.0mph /  1.6km/h 90% 0.14in /  3.6mm
21:10 57.6 °F /  14.2 °C 54.7 °F /  12.6 °C 29.64in /  1003.6hPa Calm   1.0mph /  1.6km/h 90% 0.14in /  3.6mm
21:15 57.3 °F /  14.1 °C 54.4 °F /  12.4 °C 29.64in /  1003.6hPa Calm     90% 0.14in /  3.6mm
21:20 57.1 °F /  13.9 °C 54.5 °F /  12.5 °C 29.64in /  1003.6hPa Calm     91% 0.14in /  3.6mm
21:25 57.0 °F /  13.9 °C 54.4 °F /  12.4 °C 29.65in /  1003.9hPa Calm     91% 0.14in /  3.6mm
21:30 56.9 °F /  13.8 °C 54.3 °F /  12.4 °C 29.65in /  1003.9hPa Calm   2.0mph /  3.2km/h 91% 0.14in /  3.6mm
21:35 57.1 °F /  13.9 °C 54.8 °F /  12.7 °C 29.65in /  1003.9hPa Calm   3.0mph /  4.8km/h 92% 0.14in /  3.6mm
21:40 57.4 °F /  14.1 °C 55.1 °F /  12.8 °C 29.65in /  1003.9hPa Calm   4.0mph /  6.4km/h 92% 0.14in /  3.6mm
21:45 57.4 °F /  14.1 °C 55.1 °F /  12.8 °C 29.65in /  1003.9hPa SSW 1.0mph /  1.6km/h 4.0mph /  6.4km/h 92% 0.14in /  3.6mm
21:50 57.7 °F /  14.3 °C 55.7 °F /  13.2 °C 29.65in /  1003.9hPa SSW 1.0mph /  1.6km/h 4.0mph /  6.4km/h 93% 0.14in /  3.6mm
21:55 58.0 °F /  14.4 °C 56.0 °F /  13.3 °C 29.65in /  1003.9hPa Calm   4.0mph /  6.4km/h 93% 0.14in /  3.6mm
22:00 58.2 °F /  14.6 °C 56.5 °F /  13.6 °C 29.65in /  1003.9hPa Calm   4.0mph /  6.4km/h 94% 0.14in /  3.6mm
22:05 58.4 °F /  14.7 °C 56.7 °F /  13.7 °C 29.65in /  1003.9hPa Calm   2.0mph /  3.2km/h 94% 0.14in /  3.6mm
22:10 58.6 °F /  14.8 °C 56.9 °F /  13.8 °C 29.65in /  1003.9hPa Calm   3.0mph /  4.8km/h 94% 0.14in /  3.6mm
22:15 58.6 °F /  14.8 °C 56.9 °F /  13.8 °C 29.66in /  1004.3hPa Calm   3.0mph /  4.8km/h 94% 0.14in /  3.6mm
22:20 58.7 °F /  14.8 °C 57.0 °F /  13.9 °C 29.66in /  1004.3hPa Calm   1.0mph /  1.6km/h 94% 0.14in /  3.6mm
22:25 59.0 °F /  15 °C 57.3 °F /  14.1 °C 29.66in /  1004.3hPa Calm   3.0mph /  4.8km/h 94% 0.14in /  3.6mm
22:30 59.0 °F /  15 °C 57.3 °F /  14.1 °C 29.66in /  1004.3hPa Calm   3.0mph /  4.8km/h 94% 0.14in /  3.6mm
22:35 59.0 °F /  15 °C 57.3 °F /  14.1 °C 29.66in /  1004.3hPa Calm   3.0mph /  4.8km/h 94% 0.14in /  3.6mm
22:40 59.1 °F /  15.1 °C 57.4 °F /  14.1 °C 29.66in /  1004.3hPa Calm   3.0mph /  4.8km/h 94% 0.14in /  3.6mm
22:45 59.1 °F /  15.1 °C 57.4 °F /  14.1 °C 29.66in /  1004.3hPa Calm     94% 0.14in /  3.6mm
22:50 59.0 °F /  15 °C 57.3 °F /  14.1 °C 29.66in /  1004.3hPa Calm     94% 0.14in /  3.6mm
22:55 59.0 °F /  15 °C 57.3 °F /  14.1 °C 29.66in /  1004.3hPa Calm     94% 0.14in /  3.6mm
23:00 59.0 °F /  15 °C 57.3 °F /  14.1 °C 29.67in /  1004.6hPa Calm   1.0mph /  1.6km/h 94% 0.14in /  3.6mm
23:05 59.1 °F /  15.1 °C 57.4 °F /  14.1 °C 29.67in /  1004.6hPa Calm   1.0mph /  1.6km/h 94% 0.14in /  3.6mm
23:10 59.3 °F /  15.2 °C 57.6 °F /  14.2 °C 29.67in /  1004.6hPa Calm   2.0mph /  3.2km/h 94% 0.14in /  3.6mm
23:15 59.3 °F /  15.2 °C 57.6 °F /  14.2 °C 29.67in /  1004.6hPa Calm   2.0mph /  3.2km/h 94% 0.14in /  3.6mm
23:20 59.2 °F /  15.1 °C 57.5 °F /  14.2 °C 29.67in /  1004.6hPa Calm   1.0mph /  1.6km/h 94% 0.14in /  3.6mm
23:25 59.1 °F /  15.1 °C 57.4 °F /  14.1 °C 29.67in /  1004.6hPa Calm   1.0mph /  1.6km/h 94% 0.14in /  3.6mm
23:30 59.0 °F /  15 °C 57.3 °F /  14.1 °C 29.67in /  1004.6hPa Calm   1.0mph /  1.6km/h 94% 0.14in /  3.6mm
23:35 58.7 °F /  14.8 °C 57.0 °F /  13.9 °C 29.67in /  1004.6hPa Calm   1.0mph /  1.6km/h 94% 0.14in /  3.6mm
23:40 58.4 °F /  14.7 °C 56.7 °F /  13.7 °C 29.67in /  1004.6hPa Calm     94% 0.14in /  3.6mm
23:45 58.0 °F /  14.4 °C 56.3 °F /  13.5 °C 29.67in /  1004.6hPa Calm     94% 0.14in /  3.6mm
23:50 57.7 °F /  14.3 °C 56.0 °F /  13.3 °C 29.67in /  1004.6hPa Calm     94% 0.14in /  3.6mm
23:55 57.6 °F /  14.2 °C 55.9 °F /  13.3 °C 29.67in /  1004.6hPa Calm     94% 0.14in /  3.6mm
Westford Weather
Compliments of Weather Underground

 
 
Current Radar Loop:

Copyright © WestfordWeather.net 2007-2014. All rights reserved.